SWA128 KSAN-PHOG
Flight info
| Callsign | SWA128 |
|---|---|
| Flight time | N/A |
| Altitude | 34000 |
| Route | PADRZ2 MALIT C1177 FICKY R578 FOOTS ETECO DIALO R576 DENNS LNDHY1 |
| Aircraft | B738/M-SDE2E3FGHIRWXY/LB1 |
Departure
| Time | 2026-04-21 14:03 |
|---|---|
| Airport | San Diego International Airport (KSAN) |
Arrival
| Time | N/A |
|---|---|
| Airport | Kahului International Airport (PHOG) |
| Time | Latitude | Longitude | Altitude | Speed | Heading |
|---|---|---|---|---|---|
| 2026-04-21 13:46 | 32.73379 | -117.19856 | 19 ft | 0 kts | 177° |
| 2026-04-21 13:53 | 32.73382 | -117.19856 | 19 ft | 3 kts | 177° |
| 2026-04-21 13:53 | 32.73408 | -117.19858 | 19 ft | 2 kts | 177° |
| 2026-04-21 13:54 | 32.73431 | -117.19860 | 21 ft | 4 kts | 167° |
| 2026-04-21 13:54 | 32.73456 | -117.19871 | 23 ft | 4 kts | 148° |
| 2026-04-21 13:54 | 32.73475 | -117.19892 | 23 ft | 4 kts | 123° |
| 2026-04-21 13:54 | 32.73486 | -117.19920 | 23 ft | 4 kts | 105° |
| 2026-04-21 13:55 | 32.73492 | -117.19948 | 22 ft | 4 kts | 106° |
| 2026-04-21 13:55 | 32.73497 | -117.19969 | 22 ft | 0 kts | 106° |
| 2026-04-21 13:57 | 32.73486 | -117.19920 | 23 ft | 7 kts | 106° |
| 2026-04-21 13:57 | 32.73469 | -117.19850 | 23 ft | 12 kts | 106° |
| 2026-04-21 13:57 | 32.73438 | -117.19722 | 22 ft | 20 kts | 106° |
| 2026-04-21 13:57 | 32.73397 | -117.19552 | 24 ft | 21 kts | 106° |
| 2026-04-21 13:58 | 32.73356 | -117.19384 | 23 ft | 21 kts | 106° |
| 2026-04-21 13:58 | 32.73315 | -117.19222 | 21 ft | 20 kts | 107° |
| 2026-04-21 13:58 | 32.73277 | -117.19064 | 21 ft | 20 kts | 105° |
| 2026-04-21 13:58 | 32.73241 | -117.18911 | 24 ft | 19 kts | 105° |
| 2026-04-21 13:59 | 32.73205 | -117.18763 | 23 ft | 18 kts | 106° |
| 2026-04-21 13:59 | 32.73169 | -117.18620 | 22 ft | 18 kts | 107° |
| 2026-04-21 13:59 | 32.73136 | -117.18484 | 20 ft | 17 kts | 105° |
| 2026-04-21 13:59 | 32.73106 | -117.18350 | 20 ft | 16 kts | 105° |
| 2026-04-21 14:00 | 32.73076 | -117.18222 | 19 ft | 16 kts | 105° |
| 2026-04-21 14:00 | 32.73046 | -117.18098 | 17 ft | 15 kts | 109° |
| 2026-04-21 14:00 | 32.73014 | -117.17981 | 19 ft | 15 kts | 106° |
| 2026-04-21 14:00 | 32.72987 | -117.17868 | 15 ft | 14 kts | 106° |
| 2026-04-21 14:01 | 32.72961 | -117.17759 | 15 ft | 13 kts | 106° |
| 2026-04-21 14:01 | 32.72957 | -117.17654 | 17 ft | 13 kts | 76° |
| 2026-04-21 14:01 | 32.73017 | -117.17607 | 21 ft | 13 kts | 325° |
| 2026-04-21 14:01 | 32.73053 | -117.17711 | 17 ft | 25 kts | 284° |
| 2026-04-21 14:02 | 32.73171 | -117.18202 | 20 ft | 97 kts | 286° |
| 2026-04-21 14:02 | 32.73419 | -117.19224 | 20 ft | 158 kts | 286° |
| 2026-04-21 14:02 | 32.73757 | -117.20632 | 328 ft | 187 kts | 286° |
| 2026-04-21 14:03 | 32.74931 | -117.23385 | 2083 ft | 189 kts | 309° |
| 2026-04-21 14:03 | 32.75784 | -117.24707 | 2371 ft | 213 kts | 306° |
| 2026-04-21 14:03 | 32.76689 | -117.26209 | 2580 ft | 232 kts | 304° |
| 2026-04-21 14:03 | 32.77624 | -117.27809 | 3077 ft | 238 kts | 304° |
| 2026-04-21 14:04 | 32.78577 | -117.29463 | 3503 ft | 252 kts | 304° |
| 2026-04-21 14:04 | 32.79590 | -117.31231 | 3996 ft | 263 kts | 304° |
| 2026-04-21 14:04 | 32.80667 | -117.33004 | 4684 ft | 266 kts | 307° |
| 2026-04-21 14:04 | 32.81803 | -117.34759 | 5394 ft | 269 kts | 307° |
| 2026-04-21 14:05 | 32.82956 | -117.36524 | 6109 ft | 271 kts | 307° |
| 2026-04-21 14:05 | 32.84120 | -117.38312 | 6775 ft | 275 kts | 306° |
| 2026-04-21 14:05 | 32.85300 | -117.40128 | 7437 ft | 279 kts | 306° |
| 2026-04-21 14:05 | 32.86489 | -117.41966 | 8086 ft | 282 kts | 306° |
| 2026-04-21 14:06 | 32.87692 | -117.43830 | 8724 ft | 285 kts | 306° |
| 2026-04-21 14:06 | 32.88905 | -117.45713 | 9335 ft | 289 kts | 306° |
| 2026-04-21 14:06 | 32.90137 | -117.47626 | 9948 ft | 293 kts | 305° |
| 2026-04-21 14:06 | 32.91388 | -117.49578 | 10378 ft | 304 kts | 303° |
| 2026-04-21 14:07 | 32.92284 | -117.51911 | 10501 ft | 319 kts | 279° |
| 2026-04-21 14:07 | 32.92431 | -117.54584 | 10653 ft | 333 kts | 260° |
| 2026-04-21 14:07 | 32.91961 | -117.57348 | 10821 ft | 349 kts | 255° |
| 2026-04-21 14:07 | 32.91360 | -117.60190 | 11171 ft | 358 kts | 253° |
| 2026-04-21 14:08 | 32.90725 | -117.63073 | 11714 ft | 361 kts | 253° |
| 2026-04-21 14:08 | 32.90086 | -117.65969 | 12347 ft | 362 kts | 252° |
| 2026-04-21 14:08 | 32.89450 | -117.68874 | 12937 ft | 364 kts | 253° |
| 2026-04-21 14:08 | 32.88817 | -117.71793 | 13499 ft | 366 kts | 253° |
| 2026-04-21 14:09 | 32.88192 | -117.74703 | 14045 ft | 369 kts | 253° |
| 2026-04-21 14:09 | 32.87551 | -117.77704 | 14614 ft | 371 kts | 253° |
| 2026-04-21 14:09 | 32.86923 | -117.80648 | 15136 ft | 373 kts | 253° |
| 2026-04-21 14:09 | 32.86285 | -117.83643 | 15659 ft | 375 kts | 253° |
| 2026-04-21 14:10 | 32.85642 | -117.86658 | 16148 ft | 377 kts | 253° |
| 2026-04-21 14:10 | 32.84995 | -117.89692 | 16652 ft | 379 kts | 253° |
| 2026-04-21 14:10 | 32.84343 | -117.92744 | 17162 ft | 381 kts | 253° |
| 2026-04-21 14:10 | 32.83691 | -117.95803 | 17636 ft | 383 kts | 253° |
| 2026-04-21 14:11 | 32.83033 | -117.98880 | 18089 ft | 385 kts | 253° |
| 2026-04-21 14:11 | 32.82371 | -118.01970 | 18532 ft | 387 kts | 253° |
| 2026-04-21 14:11 | 32.81705 | -118.05083 | 18998 ft | 388 kts | 253° |
| 2026-04-21 14:11 | 32.81040 | -118.08182 | 19479 ft | 389 kts | 253° |
| 2026-04-21 14:12 | 32.80369 | -118.11305 | 19882 ft | 392 kts | 253° |
| 2026-04-21 14:12 | 32.79690 | -118.14459 | 20260 ft | 394 kts | 253° |
| 2026-04-21 14:12 | 32.79057 | -118.17391 | 20602 ft | 397 kts | 253° |
| 2026-04-21 14:12 | 32.78371 | -118.20574 | 20984 ft | 399 kts | 253° |
| 2026-04-21 14:13 | 32.77679 | -118.23772 | 21363 ft | 401 kts | 253° |
| 2026-04-21 14:13 | 32.76983 | -118.26987 | 21723 ft | 403 kts | 254° |
| 2026-04-21 14:13 | 32.76283 | -118.30219 | 22074 ft | 405 kts | 254° |
| 2026-04-21 14:13 | 32.75579 | -118.33464 | 22409 ft | 407 kts | 254° |
| 2026-04-21 14:14 | 32.74870 | -118.36734 | 22737 ft | 409 kts | 254° |
| 2026-04-21 14:14 | 32.74640 | -118.37791 | 22855 ft | 409 kts | 254° |
| 2026-04-21 14:14 | 32.74477 | -118.38541 | 22933 ft | 409 kts | 254° |